Time;durP1;ratioP1;P1;durP2;ratioP2;P2;SDS_P1;SDS_P2;PMS_P1;PMS_P2;Temp;Humidity;BMP_temperature;BMP_pressure;BME280_temperature;BME280_humidity;BME280_pressure;Samples;Min_cycle;Max_cycle;Signal;HPM_P1;HPM_P2
2023/02/01 00:01:48;;;;;;;5.57;2.85;;;2.50;99.90;;;;;;4953209;29;20224;-66
2023/02/01 00:04:15;;;;;;;5.47;2.67;;;2.50;99.90;;;;;;4953725;29;20204;-67
2023/02/01 00:06:41;;;;;;;3.60;2.50;;;2.60;99.90;;;;;;4953731;29;20234;-66
2023/02/01 00:09:08;;;;;;;10.27;3.38;;;2.50;99.90;;;;;;4952677;29;20336;-66
2023/02/01 00:11:36;;;;;;;4.00;3.10;;;2.50;99.90;;;;;;4953102;29;20208;-66
2023/02/01 00:14:03;;;;;;;4.20;3.22;;;2.50;99.90;;;;;;4953174;29;20211;-66
2023/02/01 00:16:31;;;;;;;2.80;2.60;;;2.50;99.90;;;;;;4953221;29;20228;-66
2023/02/01 00:19:00;;;;;;;3.47;2.58;;;2.50;99.90;;;;;;4953191;29;20283;-66
2023/02/01 00:21:27;;;;;;;3.83;2.60;;;2.50;99.90;;;;;;4953636;29;20228;-66
2023/02/01 00:23:54;;;;;;;4.50;3.17;;;2.50;99.90;;;;;;4952525;29;20680;-66
2023/02/01 00:26:26;;;;;;;3.67;2.70;;;2.50;99.90;;;;;;4953186;29;20232;-66
2023/02/01 00:28:54;;;;;;;3.58;2.90;;;2.50;99.90;;;;;;4952513;29;20586;-66
2023/02/01 00:31:21;;;;;;;5.32;2.88;;;2.60;99.90;;;;;;4953199;29;20204;-66
2023/02/01 00:33:48;;;;;;;3.67;2.90;;;2.50;99.90;;;;;;4953132;29;20204;-66
2023/02/01 00:36:15;;;;;;;2.95;2.70;;;2.60;99.90;;;;;;4952814;29;20714;-67
2023/02/01 00:38:42;;;;;;;2.65;2.42;;;2.60;99.90;;;;;;4952351;29;20205;-66
2023/02/01 00:41:12;;;;;;;2.55;1.98;;;2.60;99.90;;;;;;4952540;29;20220;-66
2023/02/01 00:43:39;;;;;;;2.65;2.45;;;2.50;99.90;;;;;;4952775;29;20204;-66
2023/02/01 00:46:08;;;;;;;2.33;2.13;;;2.60;99.90;;;;;;4952244;29;20584;-66
2023/02/01 00:48:34;;;;;;;2.75;2.35;;;2.60;99.90;;;;;;4951871;29;20217;-65
2023/02/01 00:51:02;;;;;;;2.80;2.03;;;2.60;99.90;;;;;;4952829;29;20205;-66
2023/02/01 00:53:28;;;;;;;5.72;2.67;;;2.60;99.90;;;;;;4952374;29;20606;-66
2023/02/01 00:55:56;;;;;;;2.13;1.90;;;2.60;99.90;;;;;;4952102;29;20336;-66
2023/02/01 00:58:23;;;;;;;2.53;2.33;;;2.60;99.90;;;;;;4952030;29;20224;-66
2023/02/01 01:00:50;;;;;;;3.25;2.30;;;2.60;99.90;;;;;;4951767;29;20251;-67
2023/02/01 01:03:18;;;;;;;2.33;1.95;;;2.60;99.90;;;;;;4952390;29;20233;-66
2023/02/01 01:05:45;;;;;;;2.10;1.80;;;2.60;99.90;;;;;;4952073;28;20235;-66
2023/02/01 01:08:12;;;;;;;2.13;1.83;;;2.60;99.90;;;;;;4951769;29;20240;-66
2023/02/01 01:10:39;;;;;;;2.33;1.98;;;2.60;99.90;;;;;;4952273;29;20208;-66
2023/02/01 01:13:06;;;;;;;2.70;2.08;;;2.60;99.90;;;;;;4951921;29;20715;-66
2023/02/01 01:15:37;;;;;;;2.03;1.88;;;2.60;99.90;;;;;;4952118;29;20228;-67
2023/02/01 01:18:04;;;;;;;2.33;1.67;;;2.60;99.90;;;;;;4952430;29;20211;-66
2023/02/01 01:20:34;;;;;;;4.32;1.90;;;2.60;99.90;;;;;;4952299;29;20201;-67
2023/02/01 01:23:01;;;;;;;2.42;2.00;;;2.70;99.90;;;;;;4952415;29;20237;-66
2023/02/01 01:25:27;;;;;;;2.83;1.88;;;2.70;99.90;;;;;;4952374;29;20722;-66
2023/02/01 01:27:54;;;;;;;1.50;1.27;;;2.60;99.90;;;;;;4952507;29;20212;-67
2023/02/01 01:30:21;;;;;;;3.53;2.15;;;2.60;99.90;;;;;;4951609;29;20211;-66
2023/02/01 01:32:48;;;;;;;2.15;1.55;;;2.70;99.90;;;;;;4951924;29;20281;-67
2023/02/01 01:35:15;;;;;;;3.03;2.03;;;2.70;99.90;;;;;;4952298;29;20236;-66
2023/02/01 01:37:43;;;;;;;2.80;1.83;;;2.70;99.90;;;;;;4951543;29;20209;-66
2023/02/01 01:40:12;;;;;;;2.10;1.63;;;2.70;99.90;;;;;;4951897;29;20216;-66
2023/02/01 01:42:39;;;;;;;2.50;2.28;;;2.70;99.90;;;;;;4952824;29;20251;-66
2023/02/01 01:45:12;;;;;;;1.80;1.65;;;2.70;99.90;;;;;;4952665;29;20208;-67
2023/02/01 01:47:44;;;;;;;1.85;1.40;;;2.70;99.90;;;;;;4952820;29;20578;-67
2023/02/01 01:50:15;;;;;;;2.38;1.92;;;2.70;99.90;;;;;;4952294;29;20205;-66
2023/02/01 01:52:47;;;;;;;1.75;1.65;;;2.70;99.90;;;;;;4952810;29;20204;-66
2023/02/01 01:55:15;;;;;;;1.73;1.63;;;2.70;99.90;;;;;;4952783;29;20215;-66
2023/02/01 01:57:46;;;;;;;2.10;1.90;;;2.70;99.90;;;;;;4952618;29;20598;-66
2023/02/01 02:00:15;;;;;;;2.05;1.85;;;2.70;99.90;;;;;;4952243;29;20204;-66
2023/02/01 02:02:46;;;;;;;2.33;2.13;;;2.70;99.90;;;;;;4952589;29;20710;-66
2023/02/01 02:05:14;;;;;;;2.30;2.10;;;2.70;99.90;;;;;;4952525;29;20658;-66
2023/02/01 02:07:45;;;;;;;2.03;1.85;;;2.70;99.90;;;;;;4952612;29;20212;-66
2023/02/01 02:10:13;;;;;;;2.25;1.80;;;2.70;99.90;;;;;;4952037;29;20208;-66
2023/02/01 02:12:42;;;;;;;2.13;1.75;;;2.70;99.90;;;;;;4952266;29;20197;-66
2023/02/01 02:15:11;;;;;;;1.90;1.73;;;2.70;99.90;;;;;;4952206;29;20208;-66
2023/02/01 02:17:45;;;;;;;2.13;1.70;;;2.70;99.90;;;;;;4951767;29;20208;-66
2023/02/01 02:21:00;;;;;;;2.70;1.92;;;2.70;99.90;;;;;;4951962;29;20254;-66
2023/02/01 02:24:10;;;;;;;2.15;1.92;;;2.80;99.90;;;;;;4913733;29;20224;-66
2023/02/01 02:26:50;;;;;;;2.40;2.20;;;2.80;99.90;;;;;;4874328;29;20786;-65
2023/02/01 02:29:45;;;;;;;2.55;2.35;;;2.80;99.90;;;;;;4873828;29;20207;-66
2023/02/01 02:32:48;;;;;;;2.95;1.67;;;2.80;99.90;;;;;;4935695;29;20200;-66
2023/02/01 02:35:26;;;;;;;2.63;1.73;;;2.80;99.90;;;;;;4933227;29;20228;-66
2023/02/01 02:37:59;;;;;;;3.70;2.58;;;2.80;99.90;;;;;;4932989;29;20205;-66
2023/02/01 02:40:33;;;;;;;2.28;2.05;;;2.80;99.90;;;;;;4932611;29;20205;-67
2023/02/01 02:48:47;;;;;;;2.45;1.92;;;2.90;99.90;;;;;;4932608;29;20259;-66
2023/02/01 03:05:12;;;;;;;4.55;2.30;;;2.90;99.90;;;;;;4933065;29;20220;-66
2023/02/01 03:08:06;;;;;;;4.55;2.58;;;2.90;99.90;;;;;;4933306;29;20355;-66
2023/02/01 03:10:49;;;;;;;3.15;2.03;;;2.90;99.90;;;;;;4918558;29;20212;-66
2023/02/01 03:13:22;;;;;;;2.17;1.98;;;2.90;99.90;;;;;;4933241;29;20240;-66
2023/02/01 03:15:56;;;;;;;3.25;2.20;;;2.90;99.90;;;;;;4932774;29;20225;-66
2023/02/01 03:18:30;;;;;;;3.50;2.63;;;2.80;99.90;;;;;;4932403;29;20606;-66
2023/02/01 03:21:03;;;;;;;2.30;2.03;;;2.80;99.90;;;;;;4932822;29;20211;-66
2023/02/01 03:23:35;;;;;;;2.58;2.38;;;2.90;99.90;;;;;;4932939;29;20231;-66
2023/02/01 03:26:03;;;;;;;2.20;1.70;;;2.90;99.90;;;;;;4932563;29;20228;-66
2023/02/01 03:28:33;;;;;;;2.50;2.28;;;2.90;99.90;;;;;;4932916;29;20205;-66
2023/02/01 03:31:00;;;;;;;4.82;2.33;;;2.90;99.90;;;;;;4936127;29;20578;-66
2023/02/01 03:33:29;;;;;;;2.97;2.20;;;2.90;99.90;;;;;;4936288;29;20207;-66
2023/02/01 03:36:03;;;;;;;2.28;2.08;;;2.90;99.90;;;;;;4935954;29;20284;-66
2023/02/01 03:38:38;;;;;;;4.68;2.63;;;2.90;99.90;;;;;;4936220;29;20212;-66
2023/02/01 03:41:11;;;;;;;5.22;2.40;;;3.00;99.90;;;;;;4936322;29;20212;-66
2023/02/01 03:43:48;;;;;;;3.20;2.33;;;3.00;99.90;;;;;;4936276;29;20229;-66
2023/02/01 03:46:21;;;;;;;2.40;2.03;;;2.90;99.90;;;;;;4935866;29;20229;-66
2023/02/01 03:48:50;;;;;;;2.30;2.10;;;2.90;99.90;;;;;;4935362;29;20225;-66
2023/02/01 03:51:18;;;;;;;2.60;2.38;;;2.90;99.90;;;;;;4935916;29;20208;-66
2023/02/01 03:53:48;;;;;;;2.40;2.00;;;2.90;99.90;;;;;;4935621;29;20201;-66
2023/02/01 03:56:16;;;;;;;2.35;2.03;;;2.80;99.90;;;;;;4936013;29;20254;-65
2023/02/01 03:58:58;;;;;;;2.50;2.15;;;2.80;99.90;;;;;;4935252;29;20205;-67
2023/02/01 04:01:24;;;;;;;4.10;1.52;;;2.80;99.90;;;;;;4935698;29;20677;-66
2023/02/01 04:03:51;;;;;;;2.60;2.22;;;2.80;99.90;;;;;;4935164;29;20236;-66
2023/02/01 04:06:18;;;;;;;3.10;2.63;;;2.80;99.90;;;;;;4935630;29;20253;-66
2023/02/01 04:08:46;;;;;;;2.80;2.33;;;2.90;99.90;;;;;;4934904;29;20205;-66
2023/02/01 04:11:13;;;;;;;4.18;2.78;;;2.90;99.90;;;;;;4935438;29;20217;-66
2023/02/01 04:13:39;;;;;;;2.60;2.28;;;2.80;99.90;;;;;;4935314;29;20201;-66
2023/02/01 04:16:06;;;;;;;2.58;2.13;;;2.90;99.90;;;;;;4935188;29;20229;-66
2023/02/01 04:18:33;;;;;;;4.60;2.45;;;2.80;99.90;;;;;;4934756;29;20595;-67
2023/02/01 04:21:00;;;;;;;2.90;2.38;;;2.80;99.90;;;;;;4935301;29;20216;-66
2023/02/01 04:23:27;;;;;;;3.58;2.35;;;2.80;99.90;;;;;;4935281;29;20221;-66
2023/02/01 04:26:01;;;;;;;3.67;2.28;;;2.80;99.90;;;;;;4935482;29;20225;-66
2023/02/01 04:28:27;;;;;;;1.88;1.77;;;2.90;99.90;;;;;;4954045;29;20240;-66
2023/02/01 04:30:54;;;;;;;2.72;2.17;;;2.90;99.90;;;;;;4953932;29;20211;-66
2023/02/01 04:33:21;;;;;;;2.03;1.92;;;3.00;99.90;;;;;;4954216;29;20292;-66
2023/02/01 04:35:48;;;;;;;2.50;2.30;;;3.00;99.90;;;;;;4953338;29;20234;-66
2023/02/01 04:38:15;;;;;;;3.20;2.30;;;3.00;99.90;;;;;;4951554;29;20205;-66
2023/02/01 04:40:41;;;;;;;2.08;1.83;;;3.00;99.90;;;;;;4951000;28;20209;-66
2023/02/01 04:43:09;;;;;;;2.92;2.33;;;3.00;99.90;;;;;;4951315;29;20888;-66
2023/02/01 04:45:36;;;;;;;2.67;2.10;;;3.00;99.90;;;;;;4951778;29;20229;-66
2023/02/01 04:48:03;;;;;;;2.75;2.05;;;3.00;99.90;;;;;;4953334;29;20212;-66
2023/02/01 04:50:30;;;;;;;1.85;1.65;;;3.10;99.90;;;;;;4953693;29;20205;-66
2023/02/01 04:52:57;;;;;;;2.63;2.15;;;3.10;99.90;;;;;;4953549;29;20575;-66
2023/02/01 04:55:23;;;;;;;3.17;2.22;;;3.10;99.90;;;;;;4953666;29;20228;-66
2023/02/01 04:57:51;;;;;;;3.17;1.63;;;3.10;99.90;;;;;;4953605;29;20211;-67
2023/02/01 05:00:20;;;;;;;2.35;1.80;;;3.20;99.90;;;;;;4953345;29;20413;-66
2023/02/01 05:02:47;;;;;;;3.00;2.10;;;3.20;99.90;;;;;;4953378;29;20249;-66
2023/02/01 05:05:13;;;;;;;2.03;1.70;;;3.20;99.90;;;;;;4954195;29;20231;-66
2023/02/01 05:07:40;;;;;;;2.10;1.90;;;3.20;99.90;;;;;;4954247;29;20248;-65
2023/02/01 05:10:08;;;;;;;2.03;1.80;;;3.20;99.90;;;;;;4953487;29;20210;-65
2023/02/01 05:15:21;;;;;;;2.40;1.65;;;3.20;99.90;;;;;;4953331;29;20359;-65
2023/02/01 05:17:47;;;;;;;3.15;1.98;;;3.20;99.90;;;;;;4952930;29;20334;-66
2023/02/01 05:20:14;;;;;;;3.40;1.87;;;3.20;99.90;;;;;;4951995;29;20522;-65
2023/02/01 05:22:42;;;;;;;3.10;1.50;;;3.20;99.90;;;;;;4953809;29;20492;-65
2023/02/01 05:25:10;;;;;;;2.40;1.80;;;3.20;99.90;;;;;;4954235;29;20212;-65
2023/02/01 05:27:36;;;;;;;2.40;1.90;;;3.10;99.90;;;;;;4953523;29;20204;-65
2023/02/01 05:30:04;;;;;;;1.60;1.50;;;3.20;99.90;;;;;;4952791;29;20609;-65
2023/02/01 05:32:32;;;;;;;1.90;1.60;;;3.20;99.90;;;;;;4951763;29;20200;-65
2023/02/01 05:34:59;;;;;;;1.73;1.63;;;3.30;99.90;;;;;;4951406;29;20208;-65
2023/02/01 05:37:26;;;;;;;1.80;1.70;;;3.20;99.90;;;;;;4951071;29;20208;-65
2023/02/01 05:39:53;;;;;;;4.55;2.22;;;3.30;99.90;;;;;;4952052;29;20215;-67
2023/02/01 05:42:19;;;;;;;3.28;2.15;;;3.30;99.90;;;;;;4951980;29;20208;-66
2023/02/01 05:44:46;;;;;;;2.90;2.13;;;3.30;99.90;;;;;;4951969;29;20204;-65
2023/02/01 05:47:13;;;;;;;1.38;1.27;;;3.30;99.90;;;;;;4951944;29;20224;-66
2023/02/01 05:49:41;;;;;;;2.20;1.75;;;3.30;99.90;;;;;;4952377;29;20619;-66
2023/02/01 05:52:08;;;;;;;2.10;1.90;;;3.30;99.90;;;;;;4952175;28;20204;-66
2023/02/01 05:54:34;;;;;;;1.70;1.60;;;3.30;99.90;;;;;;4952971;29;20205;-66
2023/02/01 05:57:01;;;;;;;3.10;1.70;;;3.30;99.90;;;;;;4952827;29;20594;-66
2023/02/01 05:59:28;;;;;;;1.70;1.58;;;3.30;99.90;;;;;;4952091;29;20212;-66
2023/02/01 06:01:54;;;;;;;2.40;1.45;;;3.30;99.90;;;;;;4953277;29;20212;-66
2023/02/01 06:04:21;;;;;;;2.00;1.80;;;3.30;99.90;;;;;;4952471;29;20232;-66
2023/02/01 06:06:50;;;;;;;2.08;1.88;;;3.30;99.90;;;;;;4952221;29;20440;-66
2023/02/01 06:09:17;;;;;;;1.85;1.25;;;3.30;99.90;;;;;;4951585;29;20200;-66
2023/02/01 06:11:44;;;;;;;2.38;1.75;;;3.30;99.90;;;;;;4952932;29;20200;-66
2023/02/01 06:14:11;;;;;;;2.75;2.15;;;3.20;99.90;;;;;;4952437;29;20203;-66
2023/02/01 06:16:37;;;;;;;2.50;2.13;;;3.20;99.90;;;;;;4952278;29;20232;-66
2023/02/01 06:19:04;;;;;;;1.70;1.40;;;3.10;99.90;;;;;;4952135;29;20208;-66
2023/02/01 06:21:31;;;;;;;3.33;1.75;;;3.10;99.90;;;;;;4943086;29;20576;-67
2023/02/01 06:23:59;;;;;;;2.55;1.95;;;3.10;99.90;;;;;;4933773;29;20276;-68
2023/02/01 06:26:28;;;;;;;2.28;2.08;;;3.00;99.90;;;;;;4933068;29;20224;-69
2023/02/01 06:28:55;;;;;;;2.20;1.73;;;3.00;99.90;;;;;;4933426;29;20204;-70
2023/02/01 06:31:22;;;;;;;3.70;1.75;;;3.00;99.90;;;;;;4948256;29;20204;-67
2023/02/01 06:33:49;;;;;;;3.78;2.35;;;3.00;99.90;;;;;;4952496;29;20204;-68
2023/02/01 06:36:18;;;;;;;2.88;1.90;;;3.00;99.90;;;;;;4951911;29;20669;-68
2023/02/01 06:38:45;;;;;;;1.98;1.50;;;3.10;99.90;;;;;;4951925;29;20204;-68
2023/02/01 06:41:13;;;;;;;2.25;1.80;;;3.10;99.90;;;;;;4952325;29;20219;-67
2023/02/01 06:43:40;;;;;;;2.45;1.98;;;3.10;99.90;;;;;;4952328;29;20229;-67
2023/02/01 06:46:09;;;;;;;2.30;2.00;;;3.10;99.90;;;;;;4952286;29;20224;-67
2023/02/01 06:48:35;;;;;;;1.65;1.52;;;3.10;99.90;;;;;;4951631;29;20305;-67
2023/02/01 06:51:02;;;;;;;2.20;1.90;;;3.10;99.90;;;;;;4952597;29;20299;-67
2023/02/01 06:53:29;;;;;;;1.65;1.55;;;3.10;99.90;;;;;;4952199;29;20213;-67
2023/02/01 06:55:57;;;;;;;2.65;1.70;;;3.10;99.90;;;;;;4952346;29;20225;-68
2023/02/01 06:58:25;;;;;;;1.77;1.67;;;3.20;99.90;;;;;;4951580;29;20211;-68
2023/02/01 07:00:53;;;;;;;2.10;1.52;;;3.20;99.90;;;;;;4952415;29;20204;-68
2023/02/01 07:03:20;;;;;;;2.75;2.10;;;3.20;99.90;;;;;;4952387;28;20315;-69
2023/02/01 07:05:47;;;;;;;2.17;1.60;;;3.20;99.90;;;;;;4955874;29;20224;-69
2023/02/01 07:08:14;;;;;;;2.78;2.03;;;3.30;99.90;;;;;;4955598;29;20302;-69
2023/02/01 07:10:40;;;;;;;1.95;1.80;;;3.20;99.90;;;;;;4955638;29;20215;-69
2023/02/01 07:13:07;;;;;;;1.65;1.55;;;3.30;99.90;;;;;;4955631;29;20206;-68
2023/02/01 07:15:35;;;;;;;2.22;1.70;;;3.20;99.90;;;;;;4955388;29;20220;-68
2023/02/01 07:18:02;;;;;;;3.20;1.70;;;3.30;99.90;;;;;;4955736;29;20211;-68
2023/02/01 07:20:29;;;;;;;2.15;1.70;;;3.30;99.90;;;;;;4954826;29;20211;-69
2023/02/01 07:22:56;;;;;;;1.83;1.52;;;3.30;99.90;;;;;;4955612;29;20208;-66
2023/02/01 07:25:23;;;;;;;2.00;1.80;;;3.40;99.90;;;;;;4955321;29;20229;-67
2023/02/01 07:27:50;;;;;;;2.75;2.20;;;3.40;99.90;;;;;;4955193;29;20208;-68
2023/02/01 07:30:17;;;;;;;3.38;2.20;;;3.50;99.90;;;;;;4954809;29;20672;-66
2023/02/01 07:32:45;;;;;;;1.73;1.30;;;3.50;99.90;;;;;;4955239;29;20630;-67
2023/02/01 07:35:13;;;;;;;2.00;1.80;;;3.50;99.90;;;;;;4955570;29;20196;-68
2023/02/01 07:37:40;;;;;;;1.40;1.30;;;3.50;99.90;;;;;;4955805;29;20216;-69
2023/02/01 07:40:08;;;;;;;2.60;2.33;;;3.50;99.90;;;;;;4954783;29;20213;-67
2023/02/01 07:42:35;;;;;;;3.05;1.75;;;3.60;99.90;;;;;;4955622;29;20204;-68
2023/02/01 07:45:02;;;;;;;2.33;1.90;;;3.60;99.90;;;;;;4955362;29;20220;-67
2023/02/01 07:47:29;;;;;;;3.90;1.75;;;3.70;99.90;;;;;;4955198;29;20208;-66
2023/02/01 07:49:57;;;;;;;3.58;1.73;;;3.70;99.90;;;;;;4954517;29;20227;-67
2023/02/01 07:52:24;;;;;;;2.45;2.22;;;3.60;99.90;;;;;;4954897;29;20212;-68
2023/02/01 07:54:50;;;;;;;2.15;1.95;;;3.60;99.90;;;;;;4954785;29;20205;-66
2023/02/01 07:57:17;;;;;;;1.65;1.55;;;3.60;99.90;;;;;;4954991;29;20234;-67
2023/02/01 08:02:25;;;;;;;1.48;1.38;;;3.60;99.90;;;;;;4954106;29;20279;-67
2023/02/01 08:04:51;;;;;;;2.60;1.70;;;3.60;99.90;;;;;;4954602;29;20228;-67
2023/02/01 08:07:19;;;;;;;3.13;1.92;;;3.60;99.90;;;;;;4954955;29;20595;-68
2023/02/01 08:09:46;;;;;;;3.47;1.80;;;3.60;99.90;;;;;;4954385;29;20211;-70
2023/02/01 08:12:13;;;;;;;2.55;2.00;;;3.60;99.90;;;;;;4954456;29;20912;-69
2023/02/01 08:14:40;;;;;;;3.65;2.00;;;3.60;99.90;;;;;;4954444;28;20227;-68
2023/02/01 08:17:07;;;;;;;3.38;1.52;;;3.60;99.90;;;;;;4953820;29;20224;-68
2023/02/01 08:19:34;;;;;;;2.00;1.50;;;3.60;99.90;;;;;;4954081;29;20580;-68
2023/02/01 08:22:05;;;;;;;3.88;1.95;;;3.60;99.90;;;;;;4954733;29;20207;-67
2023/02/01 08:24:35;;;;;;;2.47;2.13;;;3.70;99.90;;;;;;4954547;29;20791;-68
2023/02/01 08:27:02;;;;;;;2.20;1.52;;;3.70;99.90;;;;;;4954470;29;20224;-68
2023/02/01 08:29:29;;;;;;;2.28;1.88;;;3.80;99.90;;;;;;4954319;29;20263;-68
2023/02/01 08:31:56;;;;;;;1.83;1.70;;;3.80;99.90;;;;;;4954721;29;20204;-69
2023/02/01 08:34:23;;;;;;;2.95;1.58;;;3.80;99.90;;;;;;4953446;29;20252;-69
2023/02/01 08:36:51;;;;;;;1.67;1.50;;;3.80;99.90;;;;;;4953836;29;20648;-67
2023/02/01 08:39:18;;;;;;;2.05;1.88;;;3.80;99.90;;;;;;4952846;29;20296;-67
2023/02/01 08:42:50;;;;;;;1.73;1.52;;;3.90;99.90;;;;;;4953791;29;20583;-66
2023/02/01 08:44:34;;;;;;;1.65;1.42;;;4.00;99.90;;;;;;4953566;29;20312;-67
2023/02/01 08:47:01;;;;;;;3.60;3.10;;;4.20;99.90;;;;;;4951050;29;20251;-67
2023/02/01 08:49:28;;;;;;;3.78;1.80;;;4.80;99.90;;;;;;4951515;29;20692;-67
2023/02/01 08:51:55;;;;;;;2.25;2.05;;;5.20;99.90;;;;;;4952625;29;20205;-67
2023/02/01 08:54:22;;;;;;;2.03;1.70;;;5.50;99.90;;;;;;4951024;29;20200;-67
2023/02/01 08:56:50;;;;;;;3.17;1.77;;;5.50;99.90;;;;;;4952877;29;20220;-67
2023/02/01 08:59:17;;;;;;;2.33;1.80;;;5.50;99.90;;;;;;4953271;29;20638;-68
2023/02/01 09:01:44;;;;;;;2.15;1.95;;;5.40;99.90;;;;;;4954076;29;20215;-68
2023/02/01 09:04:10;;;;;;;3.85;2.35;;;5.30;99.90;;;;;;4953473;29;20216;-68
2023/02/01 09:06:38;;;;;;;2.55;1.90;;;5.30;99.90;;;;;;4953432;29;20251;-69
2023/02/01 09:09:04;;;;;;;1.98;1.70;;;5.20;99.90;;;;;;4953218;29;20205;-70
2023/02/01 09:11:31;;;;;;;5.78;2.25;;;5.10;99.90;;;;;;4953693;29;20719;-68
2023/02/01 09:13:59;;;;;;;2.65;1.70;;;5.10;99.90;;;;;;4953792;29;20298;-70
2023/02/01 09:16:26;;;;;;;1.58;1.48;;;5.10;99.90;;;;;;4953118;29;20240;-68
2023/02/01 09:18:52;;;;;;;2.33;1.60;;;5.00;99.90;;;;;;4953290;29;20209;-68
2023/02/01 09:21:19;;;;;;;2.17;1.70;;;4.80;99.90;;;;;;4953421;29;20204;-68
2023/02/01 09:23:48;;;;;;;4.78;1.90;;;4.70;99.90;;;;;;4953819;29;20201;-70
2023/02/01 09:26:15;;;;;;;2.33;1.58;;;4.70;99.90;;;;;;4953599;28;20585;-70
2023/02/01 09:28:42;;;;;;;4.30;1.65;;;4.70;99.90;;;;;;4953213;29;20205;-67
2023/02/01 09:31:10;;;;;;;2.13;1.90;;;4.60;99.90;;;;;;4953388;29;20315;-67
2023/02/01 09:33:37;;;;;;;4.50;2.30;;;4.60;99.90;;;;;;4953556;29;20578;-67
2023/02/01 09:36:05;;;;;;;4.53;2.22;;;4.60;99.90;;;;;;4953302;29;20668;-68
2023/02/01 09:38:32;;;;;;;2.25;2.05;;;4.60;99.90;;;;;;4952713;29;20208;-69
2023/02/01 09:41:00;;;;;;;1.98;1.77;;;4.60;99.90;;;;;;4953256;29;20205;-69
2023/02/01 09:43:39;;;;;;;5.68;2.05;;;4.70;99.90;;;;;;4952874;29;20232;-69
2023/02/01 09:46:24;;;;;;;2.95;1.65;;;4.70;99.90;;;;;;4947455;29;20220;-70
2023/02/01 09:48:55;;;;;;;3.00;1.90;;;4.70;99.90;;;;;;4951817;29;20232;-68
2023/02/01 09:51:27;;;;;;;2.13;1.42;;;4.70;99.90;;;;;;4952720;29;20210;-67
2023/02/01 09:54:02;;;;;;;4.15;2.45;;;4.70;99.90;;;;;;4952580;29;20204;-68
2023/02/01 09:56:35;;;;;;;4.60;2.13;;;4.80;99.90;;;;;;4952494;29;20626;-71
2023/02/01 09:59:09;;;;;;;3.08;2.28;;;4.90;99.90;;;;;;4952764;29;20209;-70
2023/02/01 10:01:38;;;;;;;2.60;1.85;;;5.10;99.90;;;;;;4953011;29;20201;-68
2023/02/01 10:04:08;;;;;;;2.30;2.10;;;5.10;99.90;;;;;;4952620;29;20598;-69
2023/02/01 10:06:50;;;;;;;3.03;1.75;;;5.20;99.90;;;;;;4952572;29;20227;-69
2023/02/01 10:09:31;;;;;;;4.57;2.20;;;5.20;99.90;;;;;;4951177;29;20209;-69
2023/02/01 10:12:33;;;;;;;2.42;2.10;;;5.30;99.90;;;;;;4952537;29;20212;-69
2023/02/01 10:15:06;;;;;;;3.78;1.92;;;5.40;99.90;;;;;;4919999;29;20207;-69
2023/02/01 10:17:47;;;;;;;1.40;1.30;;;5.50;99.90;;;;;;4952227;29;20212;-69
2023/02/01 10:20:22;;;;;;;4.47;1.90;;;5.50;99.90;;;;;;4951630;29;20701;-69
2023/02/01 10:22:59;;;;;;;3.35;1.63;;;5.40;99.90;;;;;;4952043;29;20204;-69
2023/02/01 10:25:29;;;;;;;3.25;2.00;;;5.50;99.90;;;;;;4952289;29;20707;-69
2023/02/01 10:27:56;;;;;;;2.60;1.58;;;5.60;99.90;;;;;;4952361;29;20208;-70
2023/02/01 10:30:28;;;;;;;5.25;2.20;;;5.50;99.90;;;;;;4951394;29;20204;-70
2023/02/01 10:33:16;;;;;;;7.55;2.15;;;5.50;99.90;;;;;;4951753;29;20636;-69
2023/02/01 10:35:45;;;;;;;9.63;1.77;;;5.50;99.90;;;;;;4952440;29;20230;-69
2023/02/01 10:38:21;;;;;;;3.53;1.55;;;5.40;99.90;;;;;;4951443;28;20590;-67
2023/02/01 10:40:48;;;;;;;5.30;2.13;;;5.40;99.90;;;;;;4956325;29;20208;-67
2023/02/01 10:43:15;;;;;;;4.57;2.17;;;5.40;99.90;;;;;;4955810;29;20204;-67
2023/02/01 10:45:42;;;;;;;7.82;2.00;;;5.50;99.90;;;;;;4955312;29;20235;-67
2023/02/01 10:48:11;;;;;;;8.40;2.17;;;5.50;99.90;;;;;;4955634;29;20209;-67
2023/02/01 10:50:43;;;;;;;3.50;1.45;;;5.50;99.90;;;;;;4955971;29;20272;-67
2023/02/01 10:53:15;;;;;;;6.03;1.85;;;5.60;99.90;;;;;;4955424;29;20204;-67
2023/02/01 10:55:49;;;;;;;4.80;2.00;;;5.60;99.90;;;;;;4955062;29;20224;-67
2023/02/01 10:58:18;;;;;;;4.45;1.65;;;5.60;99.90;;;;;;4955172;29;20200;-67
2023/02/01 11:00:48;;;;;;;2.85;1.67;;;5.60;99.90;;;;;;4955750;29;20207;-67
2023/02/01 11:03:39;;;;;;;3.80;1.60;;;5.60;99.90;;;;;;4955653;29;20212;-67
2023/02/01 11:06:14;;;;;;;5.35;1.50;;;5.70;99.90;;;;;;4951704;29;20255;-67
2023/02/01 11:08:46;;;;;;;5.30;1.70;;;5.70;99.90;;;;;;4955672;29;20211;-67
2023/02/01 11:11:13;;;;;;;2.65;1.92;;;5.70;99.90;;;;;;4955564;29;20209;-67
2023/02/01 11:13:40;;;;;;;5.15;1.38;;;5.80;99.90;;;;;;4955262;29;20208;-67
2023/02/01 11:16:11;;;;;;;4.35;1.70;;;6.00;99.90;;;;;;4955678;29;20220;-67
2023/02/01 11:18:39;;;;;;;6.22;1.80;;;6.20;99.90;;;;;;4955370;29;20201;-67
2023/02/01 11:21:07;;;;;;;2.95;1.48;;;6.20;99.90;;;;;;4955485;29;20216;-67
2023/02/01 11:23:39;;;;;;;5.90;1.65;;;6.30;99.90;;;;;;4954908;29;20571;-67
2023/02/01 11:26:12;;;;;;;3.80;2.08;;;6.40;99.90;;;;;;4955366;29;20225;-67
2023/02/01 11:28:45;;;;;;;5.55;1.92;;;6.30;99.90;;;;;;4954919;29;20215;-67
2023/02/01 11:31:14;;;;;;;5.18;2.15;;;6.20;99.90;;;;;;4955078;29;20578;-67
2023/02/01 11:33:50;;;;;;;4.65;2.05;;;6.10;99.90;;;;;;4955487;29;20200;-67
2023/02/01 11:36:19;;;;;;;7.43;1.95;;;6.20;99.90;;;;;;4954423;29;20224;-67
2023/02/01 11:38:51;;;;;;;5.38;2.33;;;6.20;99.90;;;;;;4955272;29;20212;-67
2023/02/01 11:41:23;;;;;;;7.47;2.22;;;6.20;99.90;;;;;;4954877;29;20204;-68
2023/02/01 11:43:56;;;;;;;10.55;2.38;;;6.10;99.90;;;;;;4954744;29;20205;-67
2023/02/01 11:46:28;;;;;;;4.18;1.83;;;6.00;99.90;;;;;;4954286;29;20228;-71
2023/02/01 11:48:58;;;;;;;8.30;2.25;;;5.90;99.90;;;;;;4954259;29;20208;-69
2023/02/01 11:51:41;;;;;;;7.45;2.45;;;5.90;99.90;;;;;;4954720;28;20208;-69
2023/02/01 11:54:39;;;;;;;1.80;1.65;;;5.80;99.90;;;;;;4954712;29;20703;-68
2023/02/01 11:57:18;;;;;;;4.85;1.65;;;5.70;99.90;;;;;;4954634;29;20227;-68
2023/02/01 12:00:03;;;;;;;3.05;1.70;;;5.60;99.90;;;;;;4953937;29;20204;-67
2023/02/01 12:02:59;;;;;;;2.75;2.20;;;5.60;99.90;;;;;;4954749;29;20208;-67
2023/02/01 12:05:48;;;;;;;2.75;1.85;;;5.70;99.90;;;;;;4949575;29;20617;-67
2023/02/01 12:08:41;;;;;;;4.80;2.53;;;5.60;99.90;;;;;;4954222;29;20204;-71
2023/02/01 12:11:30;;;;;;;2.42;1.40;;;5.70;99.90;;;;;;4951610;29;20228;-70
2023/02/01 12:14:07;;;;;;;3.00;2.05;;;5.70;99.90;;;;;;4954322;29;20204;-70
2023/02/01 12:16:42;;;;;;;3.50;1.63;;;5.70;99.90;;;;;;4954546;29;20231;-69
2023/02/01 12:19:32;;;;;;;5.63;2.13;;;5.70;99.90;;;;;;4954115;29;20211;-68
2023/02/01 12:22:16;;;;;;;5.80;2.00;;;5.80;99.90;;;;;;4954353;29;20216;-68
2023/02/01 12:24:56;;;;;;;5.97;2.28;;;5.70;99.90;;;;;;4954219;29;20212;-68
2023/02/01 12:27:46;;;;;;;2.58;1.55;;;5.70;99.90;;;;;;4953831;29;20211;-68
2023/02/01 12:30:38;;;;;;;3.35;1.80;;;5.70;99.90;;;;;;4953775;29;20208;-69
2023/02/01 12:33:16;;;;;;;2.13;1.92;;;5.60;99.90;;;;;;4943828;29;20691;-69
2023/02/01 12:35:58;;;;;;;4.35;2.30;;;5.60;99.90;;;;;;4954544;29;20235;-67
2023/02/01 12:38:47;;;;;;;6.07;2.65;;;5.60;99.90;;;;;;4949847;29;20213;-68
2023/02/01 12:41:40;;;;;;;4.00;1.70;;;5.50;99.90;;;;;;4933887;29;20212;-67
2023/02/01 12:44:17;;;;;;;3.95;1.65;;;5.50;99.90;;;;;;4921023;29;20205;-68
2023/02/01 12:46:48;;;;;;;3.78;1.55;;;5.50;99.90;;;;;;4934729;29;20450;-68
2023/02/01 12:49:19;;;;;;;5.90;1.63;;;5.50;99.90;;;;;;4932518;29;20217;-70
2023/02/01 12:51:53;;;;;;;4.80;1.67;;;5.50;99.90;;;;;;4934437;29;20209;-69
2023/02/01 12:54:35;;;;;;;5.75;1.73;;;5.50;99.90;;;;;;4934547;29;20204;-68
2023/02/01 12:57:05;;;;;;;8.25;2.03;;;5.40;99.90;;;;;;4934101;29;20235;-68
2023/02/01 12:59:37;;;;;;;3.33;1.70;;;5.40;99.90;;;;;;4934136;29;20221;-69
2023/02/01 13:02:15;;;;;;;5.68;1.55;;;5.40;99.90;;;;;;4933488;29;20201;-69
2023/02/01 13:04:57;;;;;;;5.17;1.90;;;5.30;99.90;;;;;;4934409;29;20217;-69
2023/02/01 13:07:28;;;;;;;3.33;1.95;;;5.30;99.90;;;;;;4934200;29;20212;-68
2023/02/01 13:10:02;;;;;;;4.00;1.55;;;5.40;99.90;;;;;;4934527;29;20212;-68
2023/02/01 13:12:34;;;;;;;2.72;1.77;;;5.30;99.90;;;;;;4933967;29;20684;-68
2023/02/01 13:15:06;;;;;;;4.80;1.98;;;5.30;99.90;;;;;;4934236;29;20620;-67
2023/02/01 13:17:35;;;;;;;3.65;1.90;;;5.30;99.90;;;;;;4933732;29;20217;-67
2023/02/01 13:20:07;;;;;;;9.30;2.58;;;5.40;99.90;;;;;;4933081;29;20220;-67
2023/02/01 13:22:38;;;;;;;4.13;1.85;;;5.40;99.90;;;;;;4933695;29;20724;-67
2023/02/01 13:25:14;;;;;;;3.67;1.90;;;5.40;99.90;;;;;;4933556;29;20225;-67
2023/02/01 13:27:41;;;;;;;2.78;1.73;;;5.30;99.90;;;;;;4933192;29;20555;-66
2023/02/01 13:30:19;;;;;;;4.53;1.95;;;5.40;99.90;;;;;;4932890;29;20211;-69
2023/02/01 13:33:16;;;;;;;3.65;1.60;;;5.30;99.90;;;;;;4933444;29;20205;-68
2023/02/01 13:36:05;;;;;;;3.15;1.75;;;5.30;99.90;;;;;;4933757;29;20241;-68
2023/02/01 13:39:05;;;;;;;5.03;1.70;;;5.30;99.90;;;;;;4930259;29;20251;-69
2023/02/01 13:41:41;;;;;;;6.65;2.15;;;5.20;99.90;;;;;;4927166;29;20213;-68
2023/02/01 13:44:16;;;;;;;6.15;1.75;;;5.20;99.90;;;;;;4933440;29;20205;-68